Time;durP1;ratioP1;P1;durP2;ratioP2;P2;SDS_P1;SDS_P2;PMS_P1;PMS_P2;Temp;Humidity;BMP_temperature;BMP_pressure;BME280_temperature;BME280_humidity;BME280_pressure;Samples;Min_cycle;Max_cycle;Signal;HPM_P1;HPM_P2
2021/01/07 00:02:14;;;;;;;3.28;3.05;;;;;;;-0.50;81.09;100725.19;4853639;29;20033;-75
2021/01/07 00:04:39;;;;;;;2.40;2.20;;;;;;;-0.47;80.72;100732.88;4863529;29;20044;-74
2021/01/07 00:07:07;;;;;;;4.57;3.58;;;;;;;-0.49;81.33;100726.88;4868738;29;20037;-76
2021/01/07 00:09:32;;;;;;;2.80;2.50;;;;;;;-0.49;81.50;100714.25;4866895;29;20128;-74
2021/01/07 00:12:09;;;;;;;2.65;2.55;;;;;;;-0.48;81.57;100717.78;4861263;29;20144;-74
2021/01/07 00:14:35;;;;;;;3.15;2.95;;;;;;;-0.44;80.96;100724.44;4888062;29;20041;-74
2021/01/07 00:17:03;;;;;;;2.88;2.70;;;;;;;-0.43;81.31;100726.94;4858727;29;20535;-72
2021/01/07 00:19:31;;;;;;;5.32;3.78;;;;;;;-0.57;81.48;100699.09;4890349;29;20033;-72
2021/01/07 00:21:59;;;;;;;3.53;3.22;;;;;;;-0.43;81.66;100715.38;4864266;29;20034;-73
2021/01/07 00:24:25;;;;;;;3.20;2.90;;;;;;;-0.44;81.58;100716.38;4862826;29;20357;-72
2021/01/07 00:26:50;;;;;;;3.97;3.63;;;;;;;-0.41;81.46;100721.38;4874165;29;20096;-72
2021/01/07 00:29:18;;;;;;;3.92;3.67;;;;;;;-0.45;81.10;100715.56;4876048;29;20089;-72
2021/01/07 00:31:47;;;;;;;3.25;3.00;;;;;;;-0.48;81.55;100707.03;4869904;29;20037;-72
2021/01/07 00:34:13;;;;;;;2.00;1.90;;;;;;;-0.45;81.08;100717.41;4887772;29;20089;-72
2021/01/07 00:36:39;;;;;;;1.70;1.60;;;;;;;-0.49;81.54;100705.38;4859668;29;20037;-74
2021/01/07 00:39:04;;;;;;;1.70;1.60;;;;;;;-0.49;81.07;100702.69;4870355;29;20089;-71
2021/01/07 00:41:33;;;;;;;1.98;1.85;;;;;;;-0.46;81.23;100710.38;4875572;29;20392;-73
2021/01/07 00:44:07;;;;;;;2.08;1.98;;;;;;;-0.44;81.11;100716.38;4857723;29;20090;-74
2021/01/07 00:46:33;;;;;;;7.38;2.47;;;;;;;-0.44;81.68;100714.56;4887925;29;20037;-71
2021/01/07 00:49:04;;;;;;;3.92;2.33;;;;;;;-0.45;81.26;100712.03;4882231;29;20357;-75
2021/01/07 00:51:32;;;;;;;3.30;3.10;;;;;;;-0.45;81.39;100707.50;4879176;29;20132;-74
2021/01/07 00:53:58;;;;;;;6.00;3.60;;;;;;;-0.51;80.82;100697.50;4862648;29;20416;-77
2021/01/07 00:56:24;;;;;;;3.75;2.00;;;;;;;-0.49;80.97;100710.75;4874733;29;20037;-76
2021/01/07 00:58:49;;;;;;;3.47;0.95;;;;;;;-0.54;81.58;100704.06;4883184;29;20036;-76
2021/01/07 01:01:15;;;;;;;1.60;1.50;;;;;;;-0.60;81.38;100703.97;4875934;29;20029;-76
2021/01/07 01:03:40;;;;;;;1.63;1.50;;;;;;;-0.66;80.69;100694.81;4881581;29;20814;-77
2021/01/07 01:06:06;;;;;;;7.47;2.42;;;;;;;-0.60;81.38;100707.50;4890364;29;20033;-74
2021/01/07 01:08:31;;;;;;;1.88;1.77;;;;;;;-0.56;80.92;100716.03;4903266;29;20090;-74
2021/01/07 01:10:57;;;;;;;1.42;1.33;;;;;;;-0.61;81.22;100700.47;4890333;29;20057;-73
2021/01/07 01:13:22;;;;;;;1.98;1.05;;;;;;;-0.62;81.36;100701.47;4874639;29;20029;-72
2021/01/07 01:15:48;;;;;;;1.00;0.98;;;;;;;-0.60;80.96;100710.19;4885453;29;20039;-72
2021/01/07 01:18:13;;;;;;;1.15;1.05;;;;;;;-0.61;81.21;100703.16;4869825;29;20449;-73
2021/01/07 01:20:39;;;;;;;0.57;0.57;;;;;;;-0.66;80.76;100705.53;4890307;29;20379;-72
2021/01/07 01:23:06;;;;;;;1.65;1.55;;;;;;;-0.69;80.52;100694.34;4859962;29;20028;-74
2021/01/07 01:25:31;;;;;;;1.70;1.02;;;;;;;-0.69;80.35;100695.19;4871779;29;20029;-72
2021/01/07 01:27:57;;;;;;;5.30;2.13;;;;;;;-0.72;80.16;100701.75;4854355;29;20044;-73
2021/01/07 01:30:22;;;;;;;1.83;1.73;;;;;;;-0.81;80.58;100685.94;4871211;29;20040;-73
2021/01/07 01:32:48;;;;;;;1.02;0.77;;;;;;;-0.84;80.24;100686.31;4867928;29;20391;-74
2021/01/07 01:35:14;;;;;;;0.80;0.80;;;;;;;-0.85;80.63;100690.00;4853736;29;20041;-73
2021/01/07 01:37:41;;;;;;;3.03;1.77;;;;;;;-0.88;80.49;100681.31;4870659;29;20033;-74
2021/01/07 01:40:08;;;;;;;2.92;2.72;;;;;;;-0.93;80.12;100678.31;4855712;29;20508;-74
2021/01/07 01:42:34;;;;;;;4.15;3.80;;;;;;;-1.00;80.65;100668.50;4837863;29;20072;-74
2021/01/07 01:45:00;;;;;;;4.55;4.25;;;;;;;-1.00;80.80;100672.03;4854274;29;20037;-74
2021/01/07 01:47:25;;;;;;;7.10;4.20;;;;;;;-1.00;80.58;100674.69;4869647;29;20041;-74
2021/01/07 01:49:53;;;;;;;5.00;2.90;;;;;;;-1.06;80.76;100678.13;4876134;29;20036;-73
2021/01/07 01:52:21;;;;;;;1.70;1.60;;;;;;;-1.06;80.50;100681.63;4880661;29;20084;-73
2021/01/07 01:54:47;;;;;;;0.90;0.90;;;;;;;-1.09;80.34;100681.19;4871782;29;20116;-74
2021/01/07 01:57:13;;;;;;;2.53;1.02;;;;;;;-1.12;80.35;100678.88;4867924;29;20476;-74
2021/01/07 01:59:39;;;;;;;6.35;1.50;;;;;;;-1.15;80.57;100679.25;4856160;29;21263;-74
2021/01/07 02:02:13;;;;;;;1.13;1.02;;;;;;;-1.15;81.56;100676.56;4859928;29;20523;-73
2021/01/07 02:04:39;;;;;;;1.58;0.77;;;;;;;-1.13;81.63;100685.25;4871879;29;20103;-73
2021/01/07 02:07:13;;;;;;;1.40;1.30;;;;;;;-1.15;81.69;100681.91;4882772;29;20052;-74
2021/01/07 02:09:43;;;;;;;1.15;1.15;;;;;;;-1.18;81.65;100685.78;4881448;29;20556;-73
2021/01/07 02:12:09;;;;;;;0.82;0.82;;;;;;;-1.16;81.55;100688.28;4878592;29;20039;-73
2021/01/07 02:14:38;;;;;;;0.75;0.63;;;;;;;-1.21;81.50;100685.31;4881310;29;20476;-73
2021/01/07 02:17:04;;;;;;;0.40;0.40;;;;;;;-1.15;81.43;100696.16;4888462;29;20062;-73
2021/01/07 02:19:29;;;;;;;0.55;0.55;;;;;;;-1.12;81.73;100689.59;4873026;29;20025;-73
2021/01/07 02:21:55;;;;;;;1.23;1.13;;;;;;;-1.06;82.22;100681.63;4883945;29;20405;-74
2021/01/07 02:24:20;;;;;;;1.33;0.98;;;;;;;-0.80;82.36;100698.34;4881459;29;20052;-72
2021/01/07 02:26:46;;;;;;;2.05;1.95;;;;;;;-0.63;82.10;100688.22;4856853;29;20420;-72
2021/01/07 02:29:12;;;;;;;2.55;2.45;;;;;;;-0.51;82.75;100680.53;4864175;29;20087;-74
2021/01/07 02:31:38;;;;;;;4.28;3.70;;;;;;;-0.34;82.40;100682.00;4892352;29;20033;-73
2021/01/07 02:34:03;;;;;;;3.85;3.47;;;;;;;-0.16;81.76;100689.69;4880667;29;20124;-74
2021/01/07 02:36:31;;;;;;;6.97;4.50;;;;;;;-0.04;82.31;100688.16;4876197;29;20036;-74
2021/01/07 02:38:57;;;;;;;8.98;6.78;;;;;;;0.03;81.75;100688.22;4867453;29;20037;-73
2021/01/07 02:41:22;;;;;;;7.57;5.47;;;;;;;0.08;82.13;100685.78;4870102;29;20094;-73
2021/01/07 02:43:47;;;;;;;5.82;4.15;;;;;;;0.22;81.80;100685.91;4853711;29;20453;-73
2021/01/07 02:46:13;;;;;;;5.07;4.28;;;;;;;0.28;81.98;100679.81;4868942;29;20115;-73
2021/01/07 02:48:41;;;;;;;4.68;3.55;;;;;;;0.38;81.83;100685.69;4889520;29;20100;-73
2021/01/07 02:51:07;;;;;;;10.00;6.25;;;;;;;0.43;81.44;100680.53;4865988;29;20053;-73
2021/01/07 02:53:32;;;;;;;11.77;8.18;;;;;;;0.49;80.62;100682.47;4865017;29;20041;-72
2021/01/07 02:55:57;;;;;;;10.32;7.57;;;;;;;0.50;80.71;100681.44;4874600;29;20150;-71
2021/01/07 02:58:23;;;;;;;17.58;8.05;;;;;;;0.50;80.43;100686.81;4890640;29;20528;-72
2021/01/07 03:00:48;;;;;;;10.60;7.20;;;;;;;0.50;80.79;100689.53;4860298;29;20056;-71
2021/01/07 03:03:13;;;;;;;10.93;7.70;;;;;;;0.41;81.01;100673.69;4857030;29;20112;-73
2021/01/07 03:05:39;;;;;;;12.25;9.35;;;;;;;0.51;81.41;100685.81;4879522;29;20041;-73
2021/01/07 03:08:05;;;;;;;11.20;7.50;;;;;;;0.49;80.33;100687.03;4888535;29;20063;-73
2021/01/07 03:10:30;;;;;;;9.70;6.22;;;;;;;0.48;81.29;100693.41;4854379;29;20135;-73
2021/01/07 03:12:55;;;;;;;9.55;5.38;;;;;;;0.55;81.07;100688.94;4878573;29;20033;-72
2021/01/07 03:15:21;;;;;;;8.93;5.10;;;;;;;0.56;81.27;100684.41;4856662;29;20468;-72
2021/01/07 03:17:49;;;;;;;5.55;3.33;;;;;;;0.65;81.42;100685.91;4858141;29;20543;-72
2021/01/07 03:20:15;;;;;;;3.55;3.28;;;;;;;0.69;81.87;100687.19;4861253;29;20045;-72
2021/01/07 03:22:44;;;;;;;6.05;4.35;;;;;;;0.73;81.70;100688.47;4875711;29;20128;-72
2021/01/07 03:25:10;;;;;;;11.70;6.38;;;;;;;0.76;81.21;100679.16;4876321;29;20029;-72
2021/01/07 03:27:45;;;;;;;6.72;4.90;;;;;;;0.78;80.96;100679.81;4869896;29;20048;-72
2021/01/07 03:30:11;;;;;;;6.10;5.60;;;;;;;0.79;80.44;100676.94;4848869;29;20052;-74
2021/01/07 03:32:36;;;;;;;3.88;3.63;;;;;;;0.78;81.17;100675.25;4857012;29;20476;-74
2021/01/07 03:35:06;;;;;;;6.32;5.22;;;;;;;0.82;80.65;100671.16;4873676;29;20029;-73
2021/01/07 03:37:32;;;;;;;5.10;4.60;;;;;;;0.81;80.84;100669.47;4886670;29;20108;-74
2021/01/07 03:39:58;;;;;;;3.45;3.15;;;;;;;0.84;81.35;100674.47;4872210;29;20507;-74
2021/01/07 03:42:26;;;;;;;3.70;3.40;;;;;;;0.87;81.09;100673.25;4872923;29;20034;-74
2021/01/07 03:44:52;;;;;;;4.63;4.25;;;;;;;0.89;81.66;100670.34;4857848;29;20412;-74
2021/01/07 03:47:17;;;;;;;4.07;3.72;;;;;;;0.88;81.00;100664.16;4841490;29;20035;-74
2021/01/07 03:49:43;;;;;;;4.30;2.85;;;;;;;0.93;80.87;100668.94;4876294;29;20029;-74
2021/01/07 03:52:08;;;;;;;4.30;3.90;;;;;;;0.99;81.74;100670.84;4851441;29;20037;-74
2021/01/07 03:54:33;;;;;;;3.92;3.40;;;;;;;0.99;80.64;100670.84;4870126;29;20040;-74
2021/01/07 03:56:59;;;;;;;4.22;3.92;;;;;;;0.89;81.35;100654.19;4844232;29;20044;-74
2021/01/07 03:59:24;;;;;;;4.85;3.63;;;;;;;1.02;81.54;100670.44;4876874;29;20032;-73
2021/01/07 04:01:49;;;;;;;7.15;3.65;;;;;;;1.00;80.53;100662.56;4854510;29;20052;-72
2021/01/07 04:04:18;;;;;;;4.50;4.20;;;;;;;0.99;80.54;100665.47;4867360;29;20028;-72
2021/01/07 04:06:43;;;;;;;5.65;3.75;;;;;;;1.03;80.82;100666.72;4885415;29;20025;-72
2021/01/07 04:09:08;;;;;;;3.38;3.17;;;;;;;1.04;80.35;100666.53;4859479;29;20772;-71
2021/01/07 04:11:34;;;;;;;6.80;4.40;;;;;;;1.09;80.37;100668.63;4874496;29;20129;-73
2021/01/07 04:14:02;;;;;;;5.38;3.13;;;;;;;1.11;80.90;100674.66;4856967;29;20638;-73
2021/01/07 04:16:27;;;;;;;2.15;2.05;;;;;;;1.16;80.39;100674.06;4874899;29;20551;-73
2021/01/07 04:18:53;;;;;;;4.63;3.13;;;;;;;1.19;81.05;100666.41;4877294;29;20032;-73
2021/01/07 04:21:21;;;;;;;3.83;3.53;;;;;;;1.25;80.58;100666.66;4876150;29;20021;-73
2021/01/07 04:23:47;;;;;;;9.52;7.28;;;;;;;1.22;80.54;100671.41;4875174;29;20175;-72
2021/01/07 04:26:15;;;;;;;5.05;4.65;;;;;;;1.20;80.05;100668.09;4868047;29;20049;-73
2021/01/07 04:28:40;;;;;;;7.47;5.85;;;;;;;1.21;80.52;100674.28;4876915;29;20025;-72
2021/01/07 04:31:05;;;;;;;8.35;4.88;;;;;;;1.18;80.08;100669.31;4871928;29;20037;-73
2021/01/07 04:33:31;;;;;;;5.63;5.13;;;;;;;1.09;80.95;100649.78;4854775;29;20037;-73
2021/01/07 04:35:56;;;;;;;3.85;3.50;;;;;;;1.20;80.55;100662.69;4898734;29;20073;-74
2021/01/07 04:38:21;;;;;;;3.95;3.08;;;;;;;1.19;80.74;100666.41;4870105;29;20128;-74
2021/01/07 04:40:47;;;;;;;3.63;3.33;;;;;;;1.27;80.17;100662.75;4861789;29;20032;-74
2021/01/07 04:43:12;;;;;;;2.60;1.95;;;;;;;1.30;81.05;100662.34;4868186;29;20025;-74
2021/01/07 04:45:38;;;;;;;1.83;1.73;;;;;;;1.35;79.98;100659.03;4860641;29;20133;-74
2021/01/07 04:48:05;;;;;;;3.22;3.03;;;;;;;1.37;79.96;100657.81;4876976;29;20037;-74
2021/01/07 04:50:30;;;;;;;4.53;4.20;;;;;;;1.35;79.70;100661.75;4868575;29;20036;-74
2021/01/07 04:52:55;;;;;;;6.22;4.00;;;;;;;1.32;79.30;100675.63;4860901;29;20033;-74
2021/01/07 04:55:21;;;;;;;5.18;4.70;;;;;;;1.30;79.87;100672.28;4847911;29;20528;-74
2021/01/07 04:57:47;;;;;;;6.00;4.72;;;;;;;1.30;79.94;100672.28;4884878;29;20811;-74
2021/01/07 05:00:13;;;;;;;3.70;3.13;;;;;;;1.31;79.49;100663.16;4872006;29;20048;-74
2021/01/07 05:02:38;;;;;;;3.17;2.97;;;;;;;1.31;79.77;100669.38;4877806;29;20388;-73
2021/01/07 05:05:06;;;;;;;6.65;4.68;;;;;;;1.32;80.51;100670.22;4888907;29;20033;-73
2021/01/07 05:07:37;;;;;;;7.22;5.45;;;;;;;1.34;79.76;100673.53;4878269;29;20093;-73
2021/01/07 05:10:10;;;;;;;6.70;5.88;;;;;;;1.30;80.01;100662.34;4870828;29;20076;-73
2021/01/07 05:12:37;;;;;;;5.22;4.60;;;;;;;1.30;79.82;100672.28;4892522;29;20036;-72
2021/01/07 05:15:08;;;;;;;5.80;3.55;;;;;;;1.26;79.64;100654.88;4871586;29;20484;-73
2021/01/07 05:17:35;;;;;;;5.47;4.13;;;;;;;1.28;79.47;100659.00;4873076;29;20025;-73
2021/01/07 05:20:00;;;;;;;3.42;3.00;;;;;;;1.31;79.50;100660.47;4884969;29;20102;-73
2021/01/07 05:22:39;;;;;;;2.47;2.28;;;;;;;1.34;79.90;100662.75;4879863;29;21858;-72
2021/01/07 05:25:13;;;;;;;9.18;7.15;;;;;;;1.35;78.96;100659.03;4876190;29;20476;-72
2021/01/07 05:27:40;;;;;;;4.80;3.05;;;;;;;1.31;79.77;100657.78;4889744;29;20092;-72
2021/01/07 05:30:07;;;;;;;3.45;3.15;;;;;;;1.33;80.08;100655.69;4873247;29;20025;-71
2021/01/07 05:32:37;;;;;;;3.05;2.72;;;;;;;1.33;79.72;100655.69;4878850;29;20017;-72
2021/01/07 05:35:06;;;;;;;2.15;2.03;;;;;;;1.34;79.95;100657.38;4888902;29;20053;-72
2021/01/07 05:37:37;;;;;;;2.33;1.65;;;;;;;1.33;79.21;100655.69;4880269;29;20063;-72
2021/01/07 05:40:06;;;;;;;6.47;5.55;;;;;;;1.40;78.91;100656.56;4871420;29;20088;-73
2021/01/07 05:42:43;;;;;;;12.73;7.07;;;;;;;1.35;79.71;100665.25;4885541;29;20068;-73
2021/01/07 05:45:14;;;;;;;5.65;4.47;;;;;;;1.35;79.13;100661.75;4860108;29;20033;-73
2021/01/07 05:47:50;;;;;;;2.35;2.22;;;;;;;1.34;78.89;100666.31;4868538;29;20036;-72
2021/01/07 05:50:18;;;;;;;3.88;3.20;;;;;;;1.34;79.41;100660.06;4863479;29;20465;-73
2021/01/07 05:52:45;;;;;;;6.85;6.05;;;;;;;1.33;79.15;100658.41;4860664;29;20048;-73
2021/01/07 05:55:20;;;;;;;9.05;5.88;;;;;;;1.27;78.22;100669.97;4859568;29;20039;-73
2021/01/07 05:57:45;;;;;;;2.88;2.53;;;;;;;1.18;78.85;100670.16;4890981;29;20063;-73
2021/01/07 06:00:12;;;;;;;3.80;3.28;;;;;;;1.19;79.76;100674.50;4877989;29;20066;-73
2021/01/07 06:02:40;;;;;;;2.67;2.47;;;;;;;1.19;78.94;100677.19;4872733;29;20039;-73
2021/01/07 06:05:11;;;;;;;3.28;2.97;;;;;;;1.21;78.28;100666.22;4876728;29;20028;-72
2021/01/07 06:07:37;;;;;;;3.15;2.85;;;;;;;1.16;78.33;100666.81;4873069;29;20045;-72
2021/01/07 06:10:09;;;;;;;3.75;3.47;;;;;;;1.16;79.29;100672.19;4875974;29;20091;-73
2021/01/07 06:12:34;;;;;;;3.33;3.03;;;;;;;1.13;78.63;100663.69;4871889;29;20037;-73
2021/01/07 06:15:03;;;;;;;4.57;3.88;;;;;;;1.11;78.85;100663.91;4869566;29;20403;-73
2021/01/07 06:17:32;;;;;;;4.57;3.50;;;;;;;1.08;78.65;100668.81;4868917;29;20029;-73
2021/01/07 06:19:57;;;;;;;2.40;2.20;;;;;;;1.06;79.05;100666.34;4871533;29;20041;-74
2021/01/07 06:22:23;;;;;;;2.60;2.40;;;;;;;1.10;79.11;100664.91;4876529;29;20661;-74
2021/01/07 06:24:55;;;;;;;4.15;3.85;;;;;;;1.08;78.72;100652.66;4844160;29;20033;-74
2021/01/07 06:27:26;;;;;;;3.70;2.60;;;;;;;1.14;78.38;100668.88;4862176;29;20017;-72
2021/01/07 06:30:07;;;;;;;3.67;3.38;;;;;;;1.14;78.87;100671.56;4871930;29;20031;-72
2021/01/07 06:32:34;;;;;;;4.43;4.05;;;;;;;1.08;78.46;100669.69;4866525;29;20036;-73
2021/01/07 06:35:00;;;;;;;2.97;2.78;;;;;;;1.02;78.51;100670.44;4876327;29;20039;-73
2021/01/07 06:37:36;;;;;;;7.25;2.97;;;;;;;1.04;77.96;100665.72;4868016;29;20395;-74
2021/01/07 06:40:07;;;;;;;3.35;2.63;;;;;;;1.06;78.32;100666.34;4870245;29;20029;-74
2021/01/07 06:42:36;;;;;;;3.70;2.40;;;;;;;1.07;78.33;100672.53;4871788;29;20505;-73
2021/01/07 06:45:03;;;;;;;3.28;2.85;;;;;;;1.07;78.23;100665.31;4887553;29;20396;-74
2021/01/07 06:47:30;;;;;;;2.67;2.47;;;;;;;1.05;78.30;100670.03;4851449;29;20480;-72
2021/01/07 06:49:57;;;;;;;4.97;3.95;;;;;;;0.98;78.62;100655.69;4871290;29;20040;-72
2021/01/07 06:52:25;;;;;;;5.68;4.22;;;;;;;1.04;78.83;100679.19;4873391;29;20433;-72
2021/01/07 06:54:54;;;;;;;7.18;5.35;;;;;;;1.01;78.64;100669.63;4863188;29;20033;-73
2021/01/07 06:57:20;;;;;;;3.83;3.45;;;;;;;0.98;78.56;100674.56;4864183;29;20515;-72
2021/01/07 06:59:53;;;;;;;4.18;3.78;;;;;;;0.90;78.81;100662.09;4866957;29;20434;-73
2021/01/07 07:02:19;;;;;;;3.22;2.92;;;;;;;0.93;78.01;100671.63;4890813;29;20115;-73
2021/01/07 07:04:46;;;;;;;4.78;3.83;;;;;;;0.98;78.09;100669.16;4878391;29;20029;-73
2021/01/07 07:07:15;;;;;;;5.13;4.18;;;;;;;0.98;77.43;100666.47;4847328;29;20124;-73
2021/01/07 07:09:41;;;;;;;3.97;3.25;;;;;;;0.96;78.12;100665.84;4886270;29;20045;-74
2021/01/07 07:12:07;;;;;;;3.53;2.30;;;;;;;0.99;78.73;100670.84;4854918;29;20033;-74
2021/01/07 07:14:33;;;;;;;3.35;3.05;;;;;;;1.02;78.40;100670.44;4872413;29;20048;-74
2021/01/07 07:17:07;;;;;;;3.20;3.00;;;;;;;1.03;78.02;100672.13;4880085;29;20073;-74
2021/01/07 07:19:36;;;;;;;5.07;4.60;;;;;;;1.05;77.82;100675.44;4865858;29;20380;-74
2021/01/07 07:22:02;;;;;;;3.22;3.03;;;;;;;1.02;78.04;100683.91;4859143;29;20484;-73
2021/01/07 07:24:42;;;;;;;3.95;3.42;;;;;;;1.05;77.76;100686.22;4889996;29;20783;-73
2021/01/07 07:27:10;;;;;;;3.92;3.47;;;;;;;1.00;77.56;100683.28;4868785;29;20112;-73
2021/01/07 07:29:37;;;;;;;3.35;2.88;;;;;;;0.98;77.83;100688.88;4872458;29;20065;-74
2021/01/07 07:32:21;;;;;;;3.08;2.88;;;;;;;0.87;77.38;100679.47;4871571;29;20048;-73
2021/01/07 07:34:49;;;;;;;3.90;2.55;;;;;;;0.90;78.00;100689.00;4889585;29;20093;-77
2021/01/07 07:37:22;;;;;;;2.17;2.08;;;;;;;0.91;78.00;100689.84;4870372;29;20043;-73
2021/01/07 07:39:50;;;;;;;5.00;3.08;;;;;;;0.91;77.68;100689.84;4874974;29;20433;-78
2021/01/07 07:42:21;;;;;;;2.05;1.85;;;;;;;0.94;78.31;100694.84;4880504;29;20041;-79
2021/01/07 07:44:54;;;;;;;2.85;2.55;;;;;;;0.96;77.72;100688.22;4879549;29;20033;-81
2021/01/07 07:47:22;;;;;;;3.60;2.75;;;;;;;0.93;77.62;100679.72;4886245;29;20070;-78
2021/01/07 07:49:54;;;;;;;1.30;1.17;;;;;;;1.01;77.65;100684.97;4887831;29;20045;-72
2021/01/07 07:52:20;;;;;;;1.35;1.25;;;;;;;1.10;78.25;100697.25;4872454;29;20043;-75
2021/01/07 07:55:00;;;;;;;1.35;1.20;;;;;;;1.15;78.46;100704.72;4892364;29;20104;-75
2021/01/07 07:57:26;;;;;;;3.90;3.60;;;;;;;1.17;78.26;100708.91;4888141;29;20029;-75
2021/01/07 07:59:51;;;;;;;2.10;1.73;;;;;;;1.15;77.83;100708.25;4878222;29;21229;-75
2021/01/07 08:02:17;;;;;;;2.38;1.83;;;;;;;1.14;77.96;100709.28;4854934;29;20118;-75
2021/01/07 08:04:43;;;;;;;1.77;1.67;;;;;;;1.15;78.20;100713.63;4871059;29;20093;-75
2021/01/07 08:07:09;;;;;;;1.98;1.80;;;;;;;1.17;77.73;100716.97;4874836;29;20036;-75
2021/01/07 08:09:34;;;;;;;4.15;3.85;;;;;;;1.12;77.37;100708.63;4860903;29;20045;-78
2021/01/07 08:12:00;;;;;;;3.03;2.75;;;;;;;1.09;77.17;100703.66;4876215;29;20044;-80
2021/01/07 08:14:29;;;;;;;4.78;4.40;;;;;;;1.04;76.89;100712.31;4876554;29;20051;-75
2021/01/07 08:16:57;;;;;;;6.32;5.05;;;;;;;0.99;77.40;100720.16;4871701;29;20077;-77
2021/01/07 08:19:33;;;;;;;7.45;4.07;;;;;;;0.95;77.78;100723.41;4880370;29;20494;-76
2021/01/07 08:22:00;;;;;;;3.45;2.45;;;;;;;0.90;77.32;100729.41;4880560;29;20021;-75
2021/01/07 08:24:26;;;;;;;3.25;2.95;;;;;;;0.87;77.69;100719.84;4876849;29;20605;-75
2021/01/07 08:27:16;;;;;;;3.47;3.03;;;;;;;0.90;77.40;100723.19;4866300;29;20040;-76
2021/01/07 08:29:45;;;;;;;2.67;2.10;;;;;;;0.86;77.41;100731.66;4888885;29;20029;-77
2021/01/07 08:32:14;;;;;;;2.47;2.38;;;;;;;0.87;78.67;100727.91;4868176;29;20037;-76
2021/01/07 08:34:40;;;;;;;3.33;3.03;;;;;;;0.85;77.29;100724.59;4889048;29;20033;-76
2021/01/07 08:37:21;;;;;;;2.30;2.10;;;;;;;0.87;78.28;100733.31;4859240;29;20369;-77
2021/01/07 08:39:46;;;;;;;2.33;2.17;;;;;;;0.87;78.20;100727.91;4892376;29;20037;-77
2021/01/07 08:42:14;;;;;;;4.25;2.38;;;;;;;0.93;78.33;100730.88;4875975;29;20080;-76
2021/01/07 08:44:40;;;;;;;1.60;1.50;;;;;;;0.89;78.23;100735.81;4873222;29;20033;-77
2021/01/07 08:47:20;;;;;;;3.08;2.72;;;;;;;0.92;78.33;100734.59;4871962;29;20098;-75
2021/01/07 08:49:48;;;;;;;4.00;2.97;;;;;;;0.85;77.81;100730.00;4876528;29;20112;-77
2021/01/07 08:52:13;;;;;;;3.13;2.83;;;;;;;0.89;77.97;100740.38;4874773;29;20041;-78
2021/01/07 08:54:39;;;;;;;3.40;2.25;;;;;;;0.84;77.12;100731.00;4890115;29;20437;-81
2021/01/07 08:57:13;;;;;;;1.05;1.05;;;;;;;0.86;77.76;100726.28;4899289;29;20025;-81
2021/01/07 08:59:40;;;;;;;2.13;2.03;;;;;;;0.89;78.06;100729.59;4875499;29;20040;-80
2021/01/07 09:02:11;;;;;;;2.97;2.47;;;;;;;0.99;77.61;100743.56;4876360;29;20036;-77
2021/01/07 09:04:40;;;;;;;8.10;4.20;;;;;;;0.89;76.46;100737.69;4889997;29;20036;-81
2021/01/07 09:07:18;;;;;;;3.15;2.95;;;;;;;0.90;77.23;100744.72;4874133;29;20136;-80
2021/01/07 09:10:15;;;;;;;;;;;;;;;;;;;;;
2021/01/07 09:12:45;;;;;;;1.58;1.10;;;;;;;0.73;77.59;100712.72;5124527;27;20510;-76
2021/01/07 09:15:41;;;;;;;1.52;1.42;;;;;;;0.85;77.08;100716.53;5126668;27;20027;-78
2021/01/07 09:18:09;;;;;;;4.15;3.85;;;;;;;0.91;76.95;100717.59;5123514;27;20030;-77
2021/01/07 09:20:47;;;;;;;;;;;;;;;;;;;;;
2021/01/07 09:23:41;;;;;;;;;;;;;;;;;;;;;
2021/01/07 09:26:28;;;;;;;0.85;0.82;;;;;;;1.11;77.14;100727.69;5122858;27;20048;-77
2021/01/07 09:28:54;;;;;;;2.42;1.90;;;;;;;1.16;76.97;100722.56;5140066;27;20023;-80
2021/01/07 09:31:31;;;;;;;;;;;;;;;;;;;;;
2021/01/07 09:33:57;;;;;;;2.95;0.88;;;;;;;1.47;77.13;100737.47;5146508;27;20107;-79
2021/01/07 09:36:25;;;;;;;1.80;1.70;;;;;;;1.56;76.99;100734.44;5129382;27;20098;-83
2021/01/07 09:38:50;;;;;;;1.77;1.67;;;;;;;1.56;77.06;100726.34;5129642;27;20019;-78
2021/01/07 09:41:15;;;;;;;2.88;1.70;;;;;;;1.63;76.66;100736.31;5146856;27;20049;-81
2021/01/07 09:43:41;;;;;;;2.63;2.42;;;;;;;1.55;75.93;100723.84;5141377;27;20023;-81
2021/01/07 09:46:06;;;;;;;3.72;3.42;;;;;;;1.51;76.01;100723.41;5162336;22;20039;-79
2021/01/07 09:48:41;;;;;;;3.67;3.38;;;;;;;1.52;76.79;100735.84;5077898;28;20036;-81
2021/01/07 09:51:06;;;;;;;2.53;1.85;;;;;;;1.45;76.03;100726.88;5063849;28;20115;-80
2021/01/07 09:53:32;;;;;;;2.90;0.90;;;;;;;1.48;76.43;100723.78;5057107;28;20060;-79
2021/01/07 09:55:57;;;;;;;1.17;1.08;;;;;;;1.61;76.66;100728.44;5055273;28;20451;-81
2021/01/07 09:58:32;;;;;;;2.78;2.28;;;;;;;1.69;76.42;100708.56;5053516;28;20059;-80
2021/01/07 10:01:00;;;;;;;5.82;3.60;;;;;;;1.70;75.69;100710.22;5062007;28;20086;-79
2021/01/07 10:03:26;;;;;;;1.98;1.88;;;;;;;1.95;75.85;100734.81;5069227;28;20057;-79
2021/01/07 10:05:51;;;;;;;2.90;2.70;;;;;;;2.03;76.50;100734.63;5059362;28;20036;-81
2021/01/07 10:08:16;;;;;;;3.65;2.63;;;;;;;2.02;76.73;100718.66;5034748;28;20382;-78
2021/01/07 10:10:42;;;;;;;4.75;4.03;;;;;;;2.15;76.34;100724.09;5053492;28;20382;-80
2021/01/07 10:13:10;;;;;;;2.90;2.63;;;;;;;2.16;75.60;100741.94;5071504;28;20462;-80
2021/01/07 10:15:38;;;;;;;3.95;3.55;;;;;;;2.08;76.43;100717.84;5075756;28;20115;-80
2021/01/07 10:18:03;;;;;;;10.00;5.80;;;;;;;2.08;74.89;100731.31;5039428;28;20382;-79
2021/01/07 10:20:29;;;;;;;7.22;5.05;;;;;;;1.92;75.10;100740.59;5043572;28;20029;-77
2021/01/07 10:22:55;;;;;;;3.97;3.58;;;;;;;1.84;75.70;100733.53;5038303;28;20032;-79
2021/01/07 10:25:25;;;;;;;4.75;3.70;;;;;;;1.73;75.75;100726.00;5035003;28;20151;-79
2021/01/07 10:27:50;;;;;;;6.82;4.95;;;;;;;1.66;76.18;100725.13;5034281;28;20060;-78
2021/01/07 10:30:17;;;;;;;4.72;4.28;;;;;;;1.64;76.37;100738.00;5041412;28;20033;-77
2021/01/07 10:32:42;;;;;;;2.13;2.03;;;;;;;1.64;75.90;100738.00;5056555;28;20054;-76
2021/01/07 10:35:11;;;;;;;4.43;4.03;;;;;;;1.68;76.62;100732.00;5058615;28;20092;-79
2021/01/07 10:37:51;;;;;;;3.95;3.47;;;;;;;1.69;76.57;100730.13;5063927;28;20058;-80
2021/01/07 10:40:23;;;;;;;2.42;2.15;;;;;;;1.80;75.94;100720.66;5060587;28;20437;-79
2021/01/07 10:43:07;;;;;;;;;;;;;;;;;;;;;
2021/01/07 10:46:02;;;;;;;3.97;3.40;;;;;;;2.16;76.14;100741.94;5065041;28;20103;-78
2021/01/07 10:48:39;;;;;;;4.07;3.63;;;;;;;2.02;75.89;100719.47;5053441;28;20103;-78
2021/01/07 10:51:04;;;;;;;5.82;3.53;;;;;;;2.12;75.27;100724.50;5065512;28;20439;-77
2021/01/07 10:53:54;;;;;;;7.20;5.22;;;;;;;2.30;74.50;100736.59;5065994;28;20083;-76
2021/01/07 10:56:38;;;;;;;3.30;3.00;;;;;;;2.20;75.32;100737.78;5070336;28;20057;-76
2021/01/07 10:59:23;;;;;;;4.32;3.38;;;;;;;2.24;74.89;100717.47;5066828;28;20047;-76
2021/01/07 11:02:22;;;;;;;2.95;2.53;;;;;;;2.47;74.63;100729.78;5054358;28;20054;-75
2021/01/07 11:05:10;;;;;;;2.47;2.03;;;;;;;2.57;74.75;100722.09;5052698;28;20041;-76
2021/01/07 11:08:01;;;;;;;1.20;1.05;;;;;;;2.67;74.54;100724.38;5069359;28;20028;-75
2021/01/07 11:10:28;;;;;;;2.08;1.98;;;;;;;2.79;74.51;100719.22;5055522;28;20165;-76
2021/01/07 11:13:07;;;;;;;2.67;2.47;;;;;;;2.80;74.60;100699.25;5074768;28;20028;-79
2021/01/07 11:15:35;;;;;;;4.63;3.40;;;;;;;2.75;73.36;100707.16;5071801;28;20122;-78
2021/01/07 11:18:23;;;;;;;1.88;1.77;;;;;;;2.72;73.14;100691.38;5047246;28;20032;-75
2021/01/07 11:20:53;;;;;;;1.90;1.80;;;;;;;2.75;73.53;100690.97;5049589;28;20123;-76
2021/01/07 11:23:19;;;;;;;2.65;2.55;;;;;;;2.96;73.88;100698.84;5052751;28;20109;-77
2021/01/07 11:25:51;;;;;;;2.47;2.33;;;;;;;3.10;73.05;100693.44;5077283;28;20044;-77
2021/01/07 11:28:21;;;;;;;2.80;2.60;;;;;;;3.21;73.46;100694.66;5066719;28;20027;-76
2021/01/07 11:30:47;;;;;;;2.70;2.50;;;;;;;3.36;73.16;100691.69;5054871;28;20036;-76
2021/01/07 11:33:16;;;;;;;1.42;1.33;;;;;;;3.53;72.63;100686.66;5062408;28;20732;-79
2021/01/07 11:35:49;;;;;;;1.40;1.27;;;;;;;3.73;72.89;100670.38;5044688;28;20041;-78
2021/01/07 11:38:31;;;;;;;2.75;1.73;;;;;;;3.96;71.80;100676.09;5063995;28;20431;-78
2021/01/07 11:41:28;;;;;;;4.10;3.80;;;;;;;4.09;70.50;100682.47;5050719;28;20052;-78
2021/01/07 11:44:11;;;;;;;4.35;3.95;;;;;;;3.77;69.01;100647.28;5076158;28;20050;-75
2021/01/07 11:46:49;;;;;;;5.28;3.78;;;;;;;3.62;69.25;100652.94;5064648;28;20242;-75